Noord Nederlandse Zweefvliegclub

NL-0036 · Groningen, Nederland

METAR historie NL-0036 · Noord Nederlandse Zweefvliegclub

Hieronder zie je METAR's van de afgelopen dagen. Kies een jaar om door oudere METAR's te bladeren, vanaf het jaar 2007.

5 december 2022

Tijd Code Weer Temp. Zicht Plafond Wind METAR/SPECI
12:56
M
6 °C 10 km+ 1.400 ft 050° 050° 13 kt SPECI EHLW 051156Z AUTO 05013KT 350V100 9999 -DZ FEW011 BKN014 BKN016 06/05 Q1020 GRN NOSIG
13:03
M
6 °C 10 km+ 1.500 ft 050° 050° 13 kt METAR EHLW 051203Z AUTO 05013KT 350V100 9999 -DZ FEW012 BKN015 OVC018 06/05 Q1020 WHT NOSIG
12:56
M
6 °C 10 km+ 1.400 ft 050° 050° 13 kt METAR EHLW 051156Z AUTO 05013KT 350V100 9999 -DZ FEW011 BKN014 BKN016 06/05 Q1020 GRN NOSIG
12:55
M
6 °C 10 km+ 2.200 ft 050° 050° 13 kt METAR EHLW 051155Z AUTO 05013KT 360V120 9999 -DZ FEW011 SCT014 OVC022 06/05 Q1020 GRN NOSIG
12:25
M
6 °C 10 km+ 1.600 ft 050° 050° 13 kt METAR EHLW 051125Z AUTO 05013KT 340V120 9999 FEW012 BKN016 OVC019 06/05 Q1020 WHT NOSIG
12:12
M
6 °C 10 km+ 1.500 ft 040° 040° 13 kt METAR EHLW 051112Z AUTO 04013KT 360V080 9999 FEW012 OVC015 06/05 Q1020 WHT NOSIG
12:01
M
6 °C 10 km+ 1.400 ft 040° 040° 13 kt METAR EHLW 051101Z AUTO 04013KT 360V090 9999 FEW011 BKN014 OVC017 06/05 Q1020 GRN NOSIG
11:56
M
6 °C 10 km+ 1.500 ft 040° 040° 13 kt METAR EHLW 051056Z AUTO 04013KT 360V090 9999 FEW011 OVC015 06/05 Q1020 WHT NOSIG
11:55
M
6 °C 10 km+ 1.400 ft 040° 040° 12 kt METAR EHLW 051055Z AUTO 04012KT 010V080 9999 FEW011 BKN014 OVC016 06/05 Q1020 GRN NOSIG
11:28
M
6 °C 10 km+ 1.400 ft 050° 050° 13 kt METAR EHLW 051028Z AUTO 05013KT 010V110 9999 FEW010 BKN014 OVC017 06/04 Q1020 GRN NOSIG
11:25
M
6 °C 10 km+ 1.600 ft 050° 050° 13 kt METAR EHLW 051025Z AUTO 05013KT 360V110 9999 FEW014 BKN016 OVC020 06/04 Q1020 WHT NOSIG
11:18
M
6 °C 10 km+ 1.600 ft 050° 050° 12 kt METAR EHLW 051018Z AUTO 05012KT 010V090 9999 SCT014 BKN016 OVC020 06/04 Q1020 GRN TEMPO SCT010 BKN012
10:55
M
6 °C 10 km+ 1.500 ft 050° 050° 12 kt METAR EHLW 050955Z AUTO 05012KT 360V100 9999 BKN015 BKN019 OVC022 06/05 Q1021 WHT TEMPO SCT010 BKN012
10:26
M
6 °C 10 km+ 1.600 ft 050° 050° 11 kt METAR EHLW 050926Z AUTO 05011KT 350V110 9999 FEW011 OVC016 06/05 Q1020 WHT TEMPO SCT010 BKN012
10:25
M
6 °C 10 km+ 1.600 ft 050° 050° 12 kt METAR EHLW 050925Z AUTO 05012KT 350V110 9999 SCT010 OVC016 06/05 Q1020 GRN TEMPO SCT010 BKN012
10:04
M
6 °C 10 km+ 1.000 ft 050° 050° 12 kt METAR EHLW 050904Z AUTO 05012KT 350V090 9999 BKN010 BKN013 OVC016 06/05 Q1020 GRN TEMPO SCT010 BKN012
10:00
M
6 °C 10 km+ 1.500 ft 050° 050° 13 kt METAR EHLW 050900Z AUTO 05013KT 340V100 9999 SCT011 BKN015 OVC018 06/05 Q1020 GRN TEMPO SCT010 BKN012
09:57
M
6 °C 10 km+ 1.500 ft 050° 050° 13 kt METAR EHLW 050857Z AUTO 05013KT 340V110 9999 FEW011 BKN015 OVC018 06/05 Q1020 WHT TEMPO SCT010 BKN012
09:55
M
6 °C 10 km+ 1.500 ft 050° 050° 13 kt METAR EHLW 050855Z AUTO 05013KT 340V110 9999 FEW010 SCT013 OVC015 06/05 Q1020 GRN TEMPO SCT010 BKN012
09:44
M
6 °C 10 km+ 1.400 ft 050° 050° 12 kt METAR EHLW 050844Z AUTO 05012KT 360V100 9999 SCT010 BKN014 OVC017 06/05 Q1020 GRN TEMPO SCT010 BKN012
09:40
M
6 °C 10 km+ 1.600 ft 050° 050° 12 kt METAR EHLW 050840Z AUTO 05012KT 360V100 9999 FEW011/// SCT014/// BKN016/// 06/05 Q1020 GRN TEMPO SCT005 BKN006
09:29
M
6 °C 10 km+ 1.500 ft 050° 050° 12 kt SPECI EHLW 050829Z AUTO 05012KT 360V100 9999 FEW010 OVC015 06/05 Q1020 WHT TEMPO SCT005 BKN006
09:25
M
6 °C 10 km+ 1.400 ft 050° 050° 11 kt METAR EHLW 050825Z AUTO 05011KT 360V100 9999 FEW010 BKN014 OVC017 06/05 Q1020 GRN TEMPO SCT005 BKN006
09:13
I
6 °C 10 km+ 900 ft 050° 050° 11 kt METAR EHLW 050813Z AUTO 05011KT 360V120 9999 FEW008 BKN009 BKN011 06/05 Q1020 GRN TEMPO SCT005 BKN006
08:55
M
6 °C 9 km 1.000 ft 050° 050° 10 kt METAR EHLW 050755Z AUTO 05010KT 330V120 9000 -RA FEW009 BKN010 OVC012 06/05 Q1020 RERA REDZ GRN TEMPO SCT005 BKN006
08:42
M
6 °C 7 km 1.200 ft 060° 060° 11 kt METAR EHLW 050742Z AUTO 06011KT 340V110 7000 DZRA FEW007 SCT010 BKN012 06/05 Q1020 GRN TEMPO SCT005 BKN006
08:34
M
6 °C 9 km 1.300 ft 060° 060° 11 kt METAR EHLW 050734Z AUTO 06011KT 340V150 9000 DZRA FEW007 SCT010 OVC013 06/05 Q1020 GRN TEMPO SCT005 BKN006
08:25
I
6 °C 9 km 800 ft Var Var 12 kt METAR EHLW 050725Z AUTO VRB12KT 9000 -RADZ FEW006 BKN008 OVC009 06/05 Q1020 GRN TEMPO SCT005 BKN006
08:12
I
6 °C 8 km 700 ft 060° 060° 11 kt METAR EHLW 050712Z AUTO 06011KT 350V140 8000 -DZRA FEW005 BKN007 OVC008 06/05 Q1020 GRN TEMPO SCT005 BKN006
08:08
I
6 °C 8 km 700 ft 060° 060° 11 kt METAR EHLW 050708Z AUTO 06011KT 350V140 8000 -RA FEW005 OVC007 06/05 Q1020 GRN TEMPO SCT005 BKN006
07:59
I
6 °C 7 km 700 ft 060° 060° 12 kt METAR EHLW 050659Z AUTO 06012KT 350V140 7000 -RA SCT005 OVC007 06/05 Q1020 YLO TEMPO SCT005 BKN006
07:55
I
6 °C 7 km 700 ft 060° 060° 13 kt METAR EHLW 050655Z AUTO 06013KT 350V120 7000 DZ BKN007 OVC008 06/05 Q1020 GRN TEMPO SCT005 BKN006
07:41
I
6 °C 9 km 700 ft 060° 060° 14 kt METAR EHLW 050641Z AUTO 06014KT 340V140 9000 BR BKN007 OVC008 06/04 Q1020 GRN
07:25
I
6 °C 10 km+ 600 ft 060° 060° 13 kt METAR EHLW 050625Z AUTO 06013KT 350V130 9999 BKN006 OVC008 06/04 Q1020 YLO
06:55
I
6 °C 10 km+ 800 ft 050° 050° 12 kt METAR EHLW 050555Z AUTO 05012KT 360V120 9999 BKN008 OVC009 06/04 Q1020 GRN
06:25
I
6 °C 10 km+ 900 ft 060° 060° 11 kt METAR EHLW 050525Z AUTO 06011KT 340V100 9999 FEW008 BKN009 OVC011 06/04 Q1020 GRN
06:02
M
6 °C 10 km+ 1.000 ft 060° 060° 12 kt METAR EHLW 050502Z AUTO 06012KT 350V120 9999 SCT009 BKN010 OVC016 06/04 Q1020 GRN
05:55
M
6 °C 10 km+ 1.000 ft 060° 060° 11 kt METAR EHLW 050455Z AUTO 06011KT 360V130 9999 SCT009 BKN010 OVC014 06/04 Q1020 GRN
05:25
M
6 °C 10 km+ 1.000 ft 060° 060° 11 kt METAR EHLW 050425Z AUTO 06011KT 350V160 9999 FEW009 OVC010 06/04 Q1020 GRN
04:55
M
6 °C 10 km+ 1.000 ft 060° 060° 11 kt METAR EHLW 050355Z AUTO 06011KT 330V120 9999 FEW009 BKN010 OVC012 06/04 Q1020 GRN
04:33
M
6 °C 10 km+ 1.000 ft 060° 060° 13 kt METAR EHLW 050333Z AUTO 06013KT 340V120 9999 BKN010 OVC029 06/04 Q1020 GRN
04:26
M
6 °C 10 km+ 2.900 ft 060° 060° 13 kt METAR EHLW 050326Z AUTO 06013KT 350V120 9999 SCT010 OVC029 06/04 Q1020 GRN
04:25
M
6 °C 10 km+ 2.900 ft 060° 060° 13 kt METAR EHLW 050325Z AUTO 06013KT 330V120 9999 FEW010 OVC029 06/04 Q1020 BLU
03:55
M
6 °C 10 km+ 2.900 ft 060° 060° 16 kt METAR EHLW 050255Z AUTO 06016KT 350V130 9999 BKN029 OVC033 06/04 Q1020 BLU
03:41
V
6 °C 10 km+ 3.100 ft 060° 060° 14 kt METAR EHLW 050241Z AUTO 06014KT 330V130 9999 FEW011 OVC031 06/04 Q1020 BLU
03:25
M
6 °C 10 km+ 1.000 ft 060° 060° 13 kt METAR EHLW 050225Z AUTO 06013KT 350V120 9999 FEW009 BKN010 OVC013 06/04 Q1020 GRN
02:56
M
5 °C 9 km 1.000 ft 050° 050° 9 kt METAR EHLW 050156Z AUTO 05009KT 350V110 9000 BR SCT008 OVC010 05/04 Q1020 GRN
02:55
M
5 °C 9 km 1.000 ft 060° 060° 9 kt METAR EHLW 050155Z AUTO 06009KT 330V120 9000 BR SCT008 OVC010 05/04 Q1020 GRN
02:51
I
5 °C 10 km+ 900 ft 060° 060° 10 kt SPECI EHLW 050151Z AUTO 06010KT 330V130 9999 SCT008 BKN009 OVC011 05/04 Q1020 GRN
02:25
M
5 °C 10 km+ 1.100 ft 060° 060° 9 kt METAR EHLW 050125Z AUTO 06009KT 360V120 9999 BKN011 BKN023 OVC027 05/03 Q1020 GRN
02:17
M
5 °C 10 km+ 2.300 ft 070° 070° 11 kt METAR EHLW 050117Z AUTO 07011KT 360V150 9999 SCT012 SCT019 BKN023 05/03 Q1020 GRN
01:55
M
5 °C 10 km+ 1.900 ft 070° 070° 11 kt METAR EHLW 050055Z AUTO 07011KT 350V160 9999 SCT016 BKN019 OVC023 05/03 Q1020 WHT
01:46
M
5 °C 10 km+ 2.900 ft 060° 060° 10 kt SPECI EHLW 050046Z AUTO 06010KT 340V130 9999 SCT024 OVC029 05/03 Q1020 WHT
01:25
M
5 °C 9 km 2.800 ft 060° 060° 11 kt METAR EHLW 050025Z AUTO 06011KT 360V120 9000 BR SCT025 OVC028 05/03 Q1020 BLU
01:06
V
5 °C 10 km+ 3.000 ft 060° 060° 11 kt METAR EHLW 050006Z AUTO 06011KT 350V120 9999 FEW010 OVC030 05/03 Q1020 BLU
01:05
M
5 °C 9 km 1.900 ft Var Var 10 kt METAR EHLW 050005Z AUTO VRB10KT 9000 BR FEW010 BKN019 OVC030 05/03 Q1020 WHT
00:55
M
5 °C 9 km 1.700 ft 060° 060° 11 kt METAR EHLW 042355Z AUTO 06011KT 320V130 9000 BR FEW010 SCT012 OVC017 05/03 Q1020 GRN
00:34
M
5 °C 9 km 1.600 ft 060° 060° 12 kt METAR EHLW 042334Z AUTO 06012KT 350V140 9000 BR FEW008 OVC016 05/03 Q1020 WHT
00:25
M
5 °C 8 km 1.000 ft 060° 060° 11 kt METAR EHLW 042325Z AUTO 06011KT 360V110 8000 BR FEW008 BKN010 OVC020 05/03 Q1020 GRN

4 december 2022

Tijd Code Weer Temp. Zicht Plafond Wind METAR/SPECI
23:57
M
5 °C 8 km 1.000 ft 060° 060° 11 kt METAR EHLW 042257Z AUTO 06011KT 340V130 8000 BR FEW008 BKN010 OVC016 05/03 Q1020 GRN
23:55
M
5 °C 8 km 1.400 ft 060° 060° 11 kt METAR EHLW 042255Z AUTO 06011KT 340V130 8000 BR FEW009 SCT010 BKN014 05/03 Q1020 GRN
23:29
M
5 °C 10 km+ 1.600 ft 060° 060° 10 kt METAR EHLW 042229Z AUTO 06010KT 010V120 9999 FEW011 BKN016 OVC020 05/03 Q1020 WHT
23:25
M
5 °C 10 km+ 1.400 ft 060° 060° 10 kt METAR EHLW 042225Z AUTO 06010KT 010V130 9999 SCT011 BKN014 OVC016 05/03 Q1020 GRN
23:04
M
5 °C 10 km+ 1.100 ft 060° 060° 11 kt METAR EHLW 042204Z AUTO 06011KT 350V120 9999 BKN011 BKN017 OVC031 05/02 Q1020 GRN
22:55
M
5 °C 10 km+ 1.700 ft 060° 060° 12 kt METAR EHLW 042155Z AUTO 06012KT 350V130 9999 SCT011 BKN017 OVC031 05/02 Q1020 GRN
22:49
M
5 °C 10 km+ 1.700 ft 060° 060° 11 kt SPECI EHLW 042149Z AUTO 06011KT 350V130 9999 SCT012 BKN017 OVC030 05/02 Q1020 GRN
22:39
M
4 °C 10 km+ 1.700 ft 070° 070° 11 kt METAR EHLW 042139Z AUTO 07011KT 350V160 9999 FEW013 OVC017 04/02 Q1020 WHT
22:34
M
4 °C 10 km+ 1.700 ft 070° 070° 12 kt METAR EHLW 042134Z AUTO 07012KT 350V130 9999 SCT012 OVC017 04/02 Q1020 GRN
22:25
M
4 °C 10 km+ 1.600 ft 070° 070° 12 kt METAR EHLW 042125Z AUTO 07012KT 320V130 9999 FEW013/// OVC016/// 04/02 Q1020 WHT
22:17
M
4 °C 10 km+ 1.500 ft 070° 070° 11 kt METAR EHLW 042117Z AUTO 07011KT 340V150 9999 FEW013/// OVC015/// 04/02 Q1020 WHT
21:55
M
4 °C 10 km+ 1.400 ft 070° 070° 10 kt METAR EHLW 042055Z AUTO 07010KT 360V150 9999 OVC014/// 04/02 Q1020 GRN RMK TS INFO NOT AVBL
21:25
M
4 °C 10 km+ 1.300 ft Var Var 12 kt METAR EHLW 042025Z AUTO VRB12KT 9999 OVC013 04/02 Q1020 GRN
21:04
M
4 °C 10 km+ 1.400 ft 070° 070° 12 kt METAR EHLW 042004Z AUTO 07012KT 350V130 9999 OVC014 04/02 Q1020 GRN
21:01
M
4 °C 10 km+ 1.500 ft 070° 070° 13 kt METAR EHLW 042001Z AUTO 07013KT 360V150 9999 OVC015 04/01 Q1020 WHT
20:55
M
4 °C 10 km+ 1.500 ft 070° 070° 12 kt METAR EHLW 041955Z AUTO 07012KT 350V130 9999 BKN015 BKN019 OVC022 04/01 Q1020 WHT
20:25
M
4 °C 10 km+ 2.200 ft 070° 070° 11 kt METAR EHLW 041925Z AUTO 07011KT 360V130 9999 OVC022 04/01 Q1020 WHT
19:55
M
4 °C 10 km+ 2.300 ft 070° 070° 11 kt METAR EHLW 041855Z AUTO 07011KT 340V150 9999 OVC023 04/01 Q1020 WHT
19:25
M
4 °C 10 km+ 2.400 ft Var Var 10 kt METAR EHLW 041825Z AUTO VRB10KT 9999 FEW017 OVC024 04/01 Q1020 WHT RMK TS INFO NOT AVBL
18:55
M
3 °C 10 km+ 1.600 ft 070° 070° 11 kt METAR EHLW 041755Z AUTO 07011KT 340V140 9999 BKN016 OVC024 03/01 Q1020 WHT
18:25
M
3 °C 10 km+ 2.200 ft 070° 070° 11 kt METAR EHLW 041725Z AUTO 07011KT 360V140 9999 FEW012 OVC022 03/01 Q1020 WHT
17:55
M
3 °C 10 km+ 1.800 ft 070° 070° 10 kt METAR EHLW 041655Z AUTO 07010KT 360V130 9999 SCT015 OVC018 03/00 Q1020 WHT
17:25
M
3 °C 10 km+ 1.600 ft 080° 080° 11 kt METAR EHLW 041625Z AUTO 08011KT 350V130 9999 OVC016 03/M00 Q1020 WHT
17:00
M
3 °C 10 km+ 1.500 ft Var Var 15 kt METAR EHLW 041600Z AUTO VRB15KT 9999 OVC015 03/M01 Q1020 WHT
16:55
M
3 °C 10 km+ 1.400 ft 080° 080° 17 kt METAR EHLW 041555Z AUTO 08017KT 020V150 9999 BKN014 OVC016 03/M01 Q1020 GRN
16:25
M
3 °C 10 km+ 1.300 ft 080° 080° 15 - 25 kt METAR EHLW 041525Z AUTO 08015G25KT 340V150 9999 OVC013 03/M00 Q1019 GRN
15:56
M
3 °C 10 km+ 1.400 ft 070° 070° 14 kt METAR EHLW 041456Z AUTO 07014KT 350V160 9999 BKN014 OVC017 03/00 Q1019 GRN
15:55
M
3 °C 10 km+ 1.500 ft 060° 060° 13 kt METAR EHLW 041455Z AUTO 06013KT 350V160 9999 OVC015 03/00 Q1019 WHT
15:25
M
3 °C 10 km+ 1.700 ft 060° 060° 11 kt METAR EHLW 041425Z AUTO 06011KT 360V120 9999 OVC017 03/M00 Q1019 WHT
14:55
M
2 °C 10 km+ 1.800 ft 070° 070° 13 kt METAR EHLW 041355Z AUTO 07013KT 340V150 9999 OVC018 02/M01 Q1019 WHT
14:25
M
2 °C 10 km+ 1.800 ft 070° 070° 11 kt METAR EHLW 041325Z AUTO 07011KT 360V140 9999 OVC018 02/M01 Q1020 WHT
13:55
M
2 °C 10 km+ 1.500 ft 090° 090° 16 kt METAR EHLW 041255Z AUTO 09016KT 010V180 9999 BKN015 OVC018 02/M02 Q1020 WHT
13:25
M
2 °C 10 km+ 1.900 ft Var Var 17 kt METAR EHLW 041225Z AUTO VRB17KT 9999 OVC019 02/M02 Q1020 WHT
12:55
M
2 °C 10 km+ 1.900 ft 070° 070° 14 kt METAR EHLW 041155Z AUTO 07014KT 330V130 9999 SCT016 OVC019 02/M01 Q1020 WHT
12:25
M
2 °C 10 km+ 2.000 ft 070° 070° 13 kt METAR EHLW 041125Z AUTO 07013KT 360V160 9999 FEW016 OVC020 02/M00 Q1020 WHT
11:55
M
2 °C 9 km 2.000 ft 070° 070° 11 kt METAR EHLW 041055Z AUTO 07011KT 350V130 9000 BR OVC020 02/M00 Q1020 WHT
11:39
M
1 °C 8 km 2.000 ft 070° 070° 11 kt METAR EHLW 041039Z AUTO 07011KT 010V140 8000 BR FEW013 OVC020 01/M01 Q1020 WHT
11:25
M
1 °C 8 km 2.100 ft 070° 070° 10 kt METAR EHLW 041025Z AUTO 07010KT 360V130 8000 BR FEW010 OVC021 01/M01 Q1020 WHT
10:55
M
1 °C 6 km 1.200 ft 070° 070° 10 kt METAR EHLW 040955Z AUTO 07010KT 350V140 6000 BR SCT010 BKN012 OVC015 01/M01 Q1021 GRN
10:44
M
1 °C 6 km 1.000 ft 070° 070° 11 kt METAR EHLW 040944Z AUTO 07011KT 330V120 6000 BR FEW009 BKN010 OVC012 01/M01 Q1021 GRN
10:34
M
1 °C 5 km 1.000 ft 070° 070° 10 kt METAR EHLW 040934Z AUTO 07010KT 360V150 5000 BR FEW008 SCT009 OVC010 01/M01 Q1020 GRN
10:29
I
1 °C 4,6 km 1.000 ft 070° 070° 10 kt METAR EHLW 040929Z AUTO 07010KT 010V140 4600 -SG FEW007 SCT008 OVC010 01/M01 Q1020 GRN
10:25
I
1 °C 3,3 km 1.000 ft 070° 070° 10 kt METAR EHLW 040925Z AUTO 07010KT 010V140 3300 -SG FEW007 SCT008 OVC010 01/M01 Q1020 YLO
10:20
I
1 °C 3,5 km 1.000 ft 070° 070° 10 kt METAR EHLW 040920Z AUTO 07010KT 010V140 3500 -SG FEW007 SCT008 OVC010 01/M01 Q1020 YLO
10:13
I
0 °C 3,3 km 1.000 ft Var Var 9 kt METAR EHLW 040913Z AUTO VRB09KT 3300 -SGSN FEW007 SCT008 OVC010 00/M01 Q1020 YLO
10:07
I
0 °C 3 km 1.000 ft Var Var 9 kt METAR EHLW 040907Z AUTO VRB09KT 3000 -SGSN FEW007 SCT009 BKN010 00/M01 Q1020 YLO
09:55
I
0 °C 3,3 km 800 ft 070° 070° 10 kt METAR EHLW 040855Z AUTO 07010KT 340V120 3300 -SGSN FEW007 BKN008 BKN010 00/M01 Q1020 YLO
09:42
M
0 °C 5 km 1.700 ft 070° 070° 11 kt METAR EHLW 040842Z AUTO 07011KT 010V140 5000 BR FEW008 SCT010 BKN017 00/M01 Q1020 GRN
09:31
M
0 °C 5 km 2.600 ft 070° 070° 11 kt METAR EHLW 040831Z AUTO 07011KT 010V130 5000 -SG FEW009 SCT018 OVC026 00/M01 Q1020 WHT
09:25
I
0 °C 4,3 km 1.900 ft 070° 070° 10 kt METAR EHLW 040825Z AUTO 07010KT 330V130 4300 -SG FEW007 SCT014 BKN019 00/M01 Q1020 GRN
09:17
I
0 °C 4,1 km 2.500 ft Var Var 10 kt METAR EHLW 040817Z AUTO VRB10KT 4100 -SG FEW010 OVC025 00/M01 Q1020 GRN
09:00
M
0 °C 5 km 2.300 ft 070° 070° 10 kt METAR EHLW 040800Z AUTO 07010KT 350V140 5000 BR FEW020 BKN023 OVC026 00/M02 Q1020 WHT
08:59
I
0 °C 3,6 km 2.300 ft 070° 070° 10 kt METAR EHLW 040759Z AUTO 07010KT 350V140 3600 BR FEW020 OVC023 00/M02 Q1020 YLO
08:55
M
0 °C 7 km 2.300 ft 070° 070° 10 kt METAR EHLW 040755Z AUTO 07010KT 350V130 7000 BR FEW020 BKN023 OVC026 00/M02 Q1020 WHT
08:25
M
0 °C 6 km 1.900 ft 070° 070° 9 kt METAR EHLW 040725Z AUTO 07009KT 350V130 6000 BR OVC019 00/M02 Q1020 WHT
07:55
M
0 °C 7 km 2.000 ft 080° 080° 11 kt METAR EHLW 040655Z AUTO 08011KT 010V130 7000 BR OVC020 M00/M02 Q1020 WHT
07:43
M
0 °C 8 km 2.100 ft 080° 080° 10 kt METAR EHLW 040643Z AUTO 08010KT 010V160 8000 BR OVC021 M00/M02 Q1020 WHT
07:25
M
0 °C 7 km 2.400 ft 080° 080° 11 kt METAR EHLW 040625Z AUTO 08011KT 350V140 7000 BR OVC024 M00/M03 Q1020 WHT
07:07
M
0 °C 8 km 2.400 ft Var Var 12 kt METAR EHLW 040607Z AUTO VRB12KT 8000 BR OVC024 M00/M03 Q1020 WHT
07:02
M
0 °C 8 km 2.500 ft 090° 090° 12 kt SPECI EHLW 040602Z AUTO 09012KT 020V180 8000 BR OVC025 M00/M03 Q1020 BLU
06:59
M
0 °C 7 km 2.500 ft 090° 090° 11 kt METAR EHLW 040559Z AUTO 09011KT 020V180 7000 BR OVC025 M00/M03 Q1020 WHT
06:55
M
0 °C 8 km 2.500 ft 090° 090° 11 kt METAR EHLW 040555Z AUTO 09011KT 030V170 8000 BR OVC025 M00/M03 Q1020 BLU
06:32
M
0 °C 8 km 2.600 ft 080° 080° 11 kt METAR EHLW 040532Z AUTO 08011KT 360V160 8000 BR OVC026 M00/M03 Q1020 BLU
06:25
M
0 °C 8 km 2.300 ft 080° 080° 10 kt METAR EHLW 040525Z AUTO 08010KT 020V150 8000 BR BKN023 OVC027 M00/M03 Q1020 WHT
06:04
M
0 °C 8 km 2.400 ft 080° 080° 10 kt METAR EHLW 040504Z AUTO 08010KT 020V150 8000 BR OVC024 M00/M03 Q1020 WHT
05:55
M
0 °C 9 km 2.600 ft 080° 080° 9 kt METAR EHLW 040455Z AUTO 08009KT 020V140 9000 BR OVC026 M00/M03 Q1020 BLU
05:25
M
0 °C 9 km 2.700 ft 080° 080° 11 kt METAR EHLW 040425Z AUTO 08011KT 020V140 9000 BR OVC027 M00/M03 Q1020 BLU
04:55
M
0 °C 8 km 2.800 ft 070° 070° 7 kt METAR EHLW 040355Z AUTO 07007KT 010V140 8000 BR OVC028 M00/M03 Q1020 BLU
04:25
V
-1 °C 9 km - 080° 080° 9 kt METAR EHLW 040325Z AUTO 08009KT 030V130 9000 BR NCD M01/M03 Q1020 BLU
03:55
V
0 °C 9 km 3.800 ft 080° 080° 8 kt METAR EHLW 040255Z AUTO 08008KT 030V140 9000 BR OVC038 M00/M03 Q1020 BLU
03:25
V
0 °C 10 km+ - 080° 080° 8 kt METAR EHLW 040225Z AUTO 08008KT 020V140 9999 NCD M00/M03 Q1020 BLU
02:55
V
0 °C 10 km+ 3.800 ft 080° 080° 10 kt METAR EHLW 040155Z AUTO 08010KT 020V130 9999 BKN038 M00/M03 Q1020 BLU
02:25
V
0 °C 10 km+ 4.000 ft 070° 070° 10 kt METAR EHLW 040125Z AUTO 07010KT 020V130 9999 BKN040 BKN055 00/M03 Q1020 BLU
01:55
V
0 °C 10 km+ 4.100 ft 080° 080° 11 kt METAR EHLW 040055Z AUTO 08011KT 030V140 9999 OVC041 00/M03 Q1020 BLU
01:25
V
0 °C 10 km+ 3.900 ft 080° 080° 11 kt METAR EHLW 040025Z AUTO 08011KT 020V130 9999 BKN039 00/M03 Q1020 BLU
00:55
V
0 °C 10 km+ - 080° 080° 12 kt METAR EHLW 032355Z AUTO 08012KT 010V170 9999 NCD 00/M03 Q1020 BLU
00:40
V
1 °C 10 km+ - 090° 090° 14 kt METAR EHLW 032340Z AUTO 09014KT 010V170 9999 FEW016 01/M03 Q1020 BLU
00:25
M
1 °C 10 km+ 1.500 ft 080° 080° 15 kt METAR EHLW 032325Z AUTO 08015KT 020V170 9999 OVC015 01/M02 Q1020 WHT
00:00
M
1 °C 10 km+ 1.500 ft 080° 080° 15 kt METAR EHLW 032300Z AUTO 08015KT 010V150 9999 OVC015 01/M02 Q1020 WHT

3 december 2022

Tijd Code Weer Temp. Zicht Plafond Wind METAR/SPECI
23:55
M
1 °C 10 km+ 1.400 ft 080° 080° 13 kt METAR EHLW 032255Z AUTO 08013KT 350V150 9999 BKN014 OVC016 01/M02 Q1020 GRN
23:44
M
1 °C 10 km+ 1.600 ft 080° 080° 13 kt METAR EHLW 032244Z AUTO 08013KT 010V150 9999 SCT014 OVC016 01/M02 Q1020 GRN
23:25
M
1 °C 10 km+ 1.500 ft Var Var 13 kt METAR EHLW 032225Z AUTO VRB13KT 9999 OVC015 01/M02 Q1020 WHT
23:00
M
1 °C 10 km+ 1.400 ft 080° 080° 11 kt METAR EHLW 032200Z AUTO 08011KT 020V130 9999 OVC014 01/M02 Q1020 GRN
22:55
M
1 °C 10 km+ 1.500 ft 080° 080° 11 kt METAR EHLW 032155Z AUTO 08011KT 360V140 9999 OVC015 01/M02 Q1020 WHT
22:25
M
1 °C 10 km+ 1.500 ft 080° 080° 11 kt METAR EHLW 032125Z AUTO 08011KT 360V140 9999 BKN015 BKN076 01/M02 Q1020 WHT
21:59
V
1 °C 10 km+ 6.300 ft 080° 080° 11 kt METAR EHLW 032059Z AUTO 08011KT 030V130 9999 FEW015 SCT019 BKN063 01/M02 Q1021 WHT
21:55
V
1 °C 10 km+ 6.200 ft 080° 080° 11 kt METAR EHLW 032055Z AUTO 08011KT 020V130 9999 FEW019 OVC062 01/M02 Q1021 BLU
21:25
V
1 °C 10 km+ - 080° 080° 11 kt METAR EHLW 032025Z AUTO 08011KT 020V130 9999 NCD 01/M02 Q1021 BLU
21:15
V
1 °C 10 km+ - 090° 090° 12 kt METAR EHLW 032015Z AUTO 09012KT 030V140 9999 FEW016 SCT100 01/M02 Q1021 BLU
20:55
M
1 °C 10 km+ 1.900 ft 080° 080° 10 kt METAR EHLW 031955Z AUTO 08010KT 030V150 9999 BKN019 OVC100 01/M01 Q1021 WHT
20:25
V
1 °C 10 km+ 11.000 ft Var Var 9 kt METAR EHLW 031925Z AUTO VRB09KT 9999 OVC110 01/M01 Q1021 BLU
19:55
V
1 °C 10 km+ 9.900 ft 080° 080° 8 kt METAR EHLW 031855Z AUTO 08008KT 030V140 9999 OVC099 01/M01 Q1021 BLU
19:25
V
2 °C 10 km+ 9.100 ft 080° 080° 9 kt METAR EHLW 031825Z AUTO 08009KT 030V150 9999 SCT085 BKN091 BKN099 02/M01 Q1021 BLU
18:55
V
2 °C 10 km+ 9.000 ft 080° 080° 10 kt METAR EHLW 031755Z AUTO 08010KT 030V140 9999 BKN090 OVC096 02/M01 Q1021 BLU
18:25
V
2 °C 10 km+ 9.200 ft 070° 070° 10 kt METAR EHLW 031725Z AUTO 07010KT 010V180 9999 BKN092 OVC098 02/M01 Q1021 BLU
17:55
V
2 °C 10 km+ 9.200 ft 070° 070° 9 kt METAR EHLW 031655Z AUTO 07009KT 350V160 9999 SCT087 BKN092 OVC098 02/M01 Q1021 BLU
17:25
V
2 °C 10 km+ 8.500 ft 080° 080° 10 kt METAR EHLW 031625Z AUTO 08010KT 340V130 9999 BKN085 OVC093 02/M01 Q1021 BLU
16:55
V
2 °C 10 km+ 9.800 ft 080° 080° 11 kt METAR EHLW 031555Z AUTO 08011KT 010V130 9999 FEW080 BKN098 OVC100 02/M01 Q1021 BLU
16:25
V
2 °C 10 km+ 9.400 ft 080° 080° 12 kt METAR EHLW 031525Z AUTO 08012KT 010V150 9999 FEW087 BKN094 OVC100 02/M01 Q1021 BLU
15:55
V
2 °C 10 km+ 9.400 ft 070° 070° 12 kt METAR EHLW 031455Z AUTO 07012KT 330V130 9999 BKN094 OVC099 02/M01 Q1021 BLU
15:25
V
2 °C 10 km+ 10.000 ft 070° 070° 13 kt METAR EHLW 031425Z AUTO 07013KT 340V150 9999 FEW085 SCT090 OVC100 02/M01 Q1022 BLU
14:55
V
2 °C 10 km+ 9.800 ft Var Var 12 kt METAR EHLW 031355Z AUTO VRB12KT 9999 FEW087 OVC098 02/M01 Q1022 BLU
14:25
V
3 °C 10 km+ 7.700 ft 070° 070° 11 kt METAR EHLW 031325Z AUTO 07011KT 360V120 9999 FEW065 BKN077 OVC082 03/M01 Q1022 BLU
13:55
V
3 °C 10 km+ 7.500 ft 070° 070° 12 kt METAR EHLW 031255Z AUTO 07012KT 330V140 9999 FEW066 BKN075 OVC081 03/M00 Q1022 BLU
13:25
V
3 °C 10 km+ 8.300 ft 070° 070° 14 kt METAR EHLW 031225Z AUTO 07014KT 010V130 9999 FEW067 SCT077 BKN083 03/M01 Q1022 BLU
12:55
V
3 °C 10 km+ 7.200 ft 070° 070° 13 kt METAR EHLW 031155Z AUTO 07013KT 360V130 9999 FEW067 OVC072 03/M01 Q1023 BLU
12:25
V
3 °C 10 km+ 7.800 ft 070° 070° 13 kt METAR EHLW 031125Z AUTO 07013KT 010V160 9999 FEW067 BKN078 BKN087 03/M01 Q1023 BLU
11:55
V
3 °C 10 km+ 5.400 ft 080° 080° 13 kt METAR EHLW 031055Z AUTO 08013KT 010V130 9999 BKN054 BKN060 OVC075 03/M01 Q1023 BLU
11:25
V
3 °C 10 km+ 9.300 ft 070° 070° 14 kt METAR EHLW 031025Z AUTO 07014KT 330V140 9999 OVC093 03/M01 Q1024 BLU
10:55
V
3 °C 10 km+ 9.000 ft 070° 070° 12 kt METAR EHLW 030955Z AUTO 07012KT 010V120 9999 SCT083 OVC090 03/M00 Q1024 BLU

Wij en derden volgen je internetgedrag op onze website met cookies. Als je doorgaat, gaan we ervan uit dat je akkoord gaat met onze cookiebeleid.